createdAt,value
2019-05-15T00:00:38.617Z,7.7
2019-05-15T00:01:41.146Z,7.7
2019-05-15T00:02:43.120Z,7.7
2019-05-15T00:03:45.005Z,7.7
2019-05-15T00:04:49.665Z,7.5
2019-05-15T00:05:50.708Z,7.7
2019-05-15T00:06:52.593Z,7.6
2019-05-15T00:07:54.213Z,7.7
2019-05-15T00:08:56.099Z,7.6
2019-05-15T00:10:00.199Z,7.6
2019-05-15T00:11:02.081Z,7.6
2019-05-15T00:12:03.971Z,7.6
2019-05-15T00:13:05.872Z,7.6
2019-05-15T00:14:10.586Z,7.6
2019-05-15T00:15:12.186Z,7.6
2019-05-15T00:16:13.818Z,7.6
2019-05-15T00:17:14.884Z,7.6
2019-05-15T00:18:18.493Z,7.6
2019-05-15T00:19:20.210Z,7.6
2019-05-15T00:20:22.094Z,7.5
2019-05-15T00:21:23.982Z,7.5
2019-05-15T00:22:25.869Z,7.5
2019-05-15T00:23:30.080Z,7.5
2019-05-15T00:24:31.962Z,7.5
2019-05-15T00:25:33.852Z,7.5
2019-05-15T00:26:35.760Z,7.5
2019-05-15T00:27:39.899Z,7.5
2019-05-15T00:28:41.790Z,7.5
2019-05-15T00:29:43.679Z,7.4
2019-05-15T00:30:47.991Z,7.4
2019-05-15T00:31:50.001Z,7.4
2019-05-15T00:32:51.897Z,7.3
2019-05-15T00:33:53.790Z,7.1
2019-05-15T00:34:55.678Z,6.9
2019-05-15T00:35:59.672Z,6.8
2019-05-15T00:37:01.275Z,6.9
2019-05-15T00:38:03.229Z,6.8
2019-05-15T00:39:04.860Z,6.7
2019-05-15T00:40:09.128Z,6.8
2019-05-15T00:41:11.002Z,6.6
2019-05-15T00:42:12.864Z,6.6
2019-05-15T00:43:14.470Z,6.5
2019-05-15T00:44:18.828Z,6.6
2019-05-15T00:45:20.693Z,6.5
2019-05-15T00:46:22.279Z,6.4
2019-05-15T00:47:24.143Z,6.4
2019-05-15T00:48:26.010Z,6.4
2019-05-15T00:49:30.077Z,6.5
2019-05-15T00:50:31.108Z,6.4
2019-05-15T00:51:32.975Z,6.3
2019-05-15T00:52:34.552Z,6.3
2019-05-15T00:53:38.732Z,6.4
2019-05-15T00:54:40.747Z,6.3
2019-05-15T00:55:42.343Z,6.3
2019-05-15T00:56:44.218Z,6.2
2019-05-15T00:57:48.325Z,6.3
2019-05-15T00:58:50.316Z,6.3
2019-05-15T00:59:51.889Z,6.3
2019-05-15T01:00:53.754Z,6.4
2019-05-15T01:01:55.618Z,6.3
2019-05-15T01:02:59.821Z,6.3
2019-05-15T01:04:01.395Z,6.2
2019-05-15T01:05:03.258Z,6.2
2019-05-15T01:06:05.135Z,6.2
2019-05-15T01:07:09.175Z,6.4
2019-05-15T01:08:11.035Z,6.6
2019-05-15T01:09:13.145Z,6.6
2019-05-15T01:10:15.005Z,6.6
2019-05-15T01:11:19.003Z,6.7
2019-05-15T01:12:21.076Z,6.7
2019-05-15T01:13:22.921Z,6.7
2019-05-15T01:14:24.785Z,6.6
2019-05-15T01:15:29.060Z,6.7
2019-05-15T01:16:30.960Z,6.7
2019-05-15T01:17:32.821Z,6.7
2019-05-15T01:18:34.683Z,6.7
2019-05-15T01:19:38.867Z,6.6
2019-05-15T01:20:40.725Z,6.6
2019-05-15T01:21:42.585Z,6.5
2019-05-15T01:22:44.454Z,6.3
2019-05-15T01:23:45.492Z,6.3
2019-05-15T01:24:49.220Z,6.2
2019-05-15T01:25:51.095Z,6.2
2019-05-15T01:26:52.948Z,6.3
2019-05-15T01:27:54.540Z,6.3
2019-05-15T01:28:58.751Z,6.4
2019-05-15T01:30:00.611Z,6.4
2019-05-15T01:31:02.196Z,6.4
2019-05-15T01:32:04.058Z,6.3
2019-05-15T01:33:08.250Z,6.3
2019-05-15T01:34:10.252Z,6.5
2019-05-15T01:35:12.114Z,6.4
2019-05-15T01:36:13.974Z,6.5
2019-05-15T01:37:15.834Z,6.5
2019-05-15T01:38:20.003Z,6.4
2019-05-15T01:39:21.866Z,6.5
2019-05-15T01:40:23.725Z,6.5
2019-05-15T01:41:25.605Z,6.4
2019-05-15T01:42:29.588Z,6.4
2019-05-15T01:43:31.452Z,6.4
2019-05-15T01:44:33.310Z,6.4
2019-05-15T01:45:35.181Z,6.4
2019-05-15T01:46:39.648Z,6.3
2019-05-15T01:47:41.507Z,6.4
2019-05-15T01:48:43.366Z,6.3
2019-05-15T01:49:45.228Z,6.3
2019-05-15T01:50:49.530Z,6.3
2019-05-15T01:51:51.421Z,6.3
2019-05-15T01:52:53.280Z,6.3
2019-05-15T01:53:55.143Z,6.2
2019-05-15T01:54:59.224Z,6.1
2019-05-15T01:56:00.823Z,6.1
2019-05-15T01:57:02.182Z,6
2019-05-15T01:58:04.042Z,6
2019-05-15T01:59:05.906Z,6
2019-05-15T02:00:09.849Z,6
2019-05-15T02:01:11.709Z,6
2019-05-15T02:02:13.571Z,6
2019-05-15T02:03:15.143Z,6
2019-05-15T02:04:19.579Z,6.1
2019-05-15T02:05:21.057Z,5.9
2019-05-15T02:06:22.913Z,5.9
2019-05-15T02:07:24.776Z,6
2019-05-15T02:08:28.913Z,5.9
2019-05-15T02:09:30.778Z,6
2019-05-15T02:10:32.635Z,5.9
2019-05-15T02:11:34.502Z,5.9
2019-05-15T02:12:39.064Z,5.9
2019-05-15T02:13:41.039Z,5.8
2019-05-15T02:14:42.905Z,5.7
2019-05-15T02:15:44.785Z,5.7
2019-05-15T02:16:48.658Z,5.7
2019-05-15T02:17:50.536Z,5.7
2019-05-15T02:18:52.454Z,5.5
2019-05-15T02:19:54.321Z,5.5
2019-05-15T02:20:58.508Z,5.4
2019-05-15T02:22:00.608Z,5.4
2019-05-15T02:23:01.919Z,5.2
2019-05-15T02:24:03.789Z,5.3
2019-05-15T02:25:08.253Z,5.2
2019-05-15T02:26:10.078Z,5.1
2019-05-15T02:27:11.941Z,5.2
2019-05-15T02:28:13.809Z,5.1
2019-05-15T02:29:17.108Z,5.2
2019-05-15T02:30:29.770Z,5.1
2019-05-15T02:31:38.872Z,5.1
2019-05-15T02:32:40.760Z,5
2019-05-15T02:33:42.632Z,5
2019-05-15T02:34:44.506Z,5.1
2019-05-15T02:35:49.747Z,5
2019-05-15T02:36:52.005Z,4.9
2019-05-15T02:37:53.860Z,5
2019-05-15T02:38:55.439Z,4.8
2019-05-15T02:40:01.089Z,4.8
2019-05-15T02:41:03.105Z,4.9
2019-05-15T02:42:04.973Z,4.9
2019-05-15T02:43:10.836Z,4.9
2019-05-15T02:44:12.706Z,4.9
2019-05-15T02:45:14.574Z,4.8
2019-05-15T02:46:19.978Z,4.8
2019-05-15T02:47:21.621Z,4.8
2019-05-15T02:48:23.515Z,4.9
2019-05-15T02:49:25.094Z,4.8
2019-05-15T02:50:30.565Z,4.7
2019-05-15T02:51:32.447Z,4.7
2019-05-15T02:52:33.759Z,4.9
2019-05-15T02:53:35.624Z,4.7
2019-05-15T02:54:40.959Z,4.8
2019-05-15T02:55:42.827Z,5
2019-05-15T02:56:44.693Z,4.9
2019-05-15T02:57:49.293Z,5
2019-05-15T02:58:50.992Z,5.1
2019-05-15T02:59:52.576Z,5.3
2019-05-15T03:00:54.438Z,5.3
2019-05-15T03:02:00.120Z,5.3
2019-05-15T03:03:02.005Z,5.3
2019-05-15T03:04:03.979Z,5.2
2019-05-15T03:05:09.001Z,5.1
2019-05-15T03:06:11.207Z,5.2
2019-05-15T03:07:12.791Z,5.2
2019-05-15T03:08:14.375Z,5.2
2019-05-15T03:09:20.089Z,5.2
2019-05-15T03:10:21.955Z,5.3
2019-05-15T03:11:23.533Z,5.3
2019-05-15T03:12:25.394Z,5.3
2019-05-15T03:13:30.373Z,5.2
2019-05-15T03:14:32.239Z,5.3
2019-05-15T03:15:34.100Z,5.3
2019-05-15T03:16:39.105Z,5.3
2019-05-15T03:17:41.230Z,5.3
2019-05-15T03:18:43.086Z,5.3
2019-05-15T03:19:44.657Z,5.3
2019-05-15T03:20:49.777Z,5.2
2019-05-15T03:21:51.640Z,5.3
2019-05-15T03:22:53.498Z,5.1
2019-05-15T03:23:55.360Z,5.3
2019-05-15T03:25:00.493Z,5.3
2019-05-15T03:26:04.159Z,5.3
2019-05-15T03:27:09.337Z,5.1
2019-05-15T03:28:11.176Z,5.1
2019-05-15T03:29:13.099Z,5.2
2019-05-15T03:30:15.019Z,5.1
2019-05-15T03:31:43.074Z,5
2019-05-15T03:33:45.325Z,5.2
2019-05-15T03:34:57.005Z,5.1
2019-05-15T03:36:14.326Z,5.2
2019-05-15T03:37:21.403Z,5.2
2019-05-15T03:38:24.482Z,5.3
2019-05-15T03:39:30.709Z,5.1
2019-05-15T03:40:32.568Z,5.1
2019-05-15T03:41:34.429Z,5.1
2019-05-15T03:42:39.990Z,5.1
2019-05-15T03:43:41.917Z,5.2
2019-05-15T03:44:43.779Z,5.1
2019-05-15T03:45:49.029Z,5.1
2019-05-15T03:46:51.081Z,5.1
2019-05-15T03:47:52.937Z,5.1
2019-05-15T03:48:54.264Z,5.1
2019-05-15T03:49:55.853Z,5.1
2019-05-15T03:51:00.864Z,5.1
2019-05-15T03:52:02.718Z,5.2
2019-05-15T03:53:04.582Z,5.1
2019-05-15T03:54:09.169Z,5.1
2019-05-15T03:55:11.322Z,5.1
2019-05-15T03:56:13.247Z,5.1
2019-05-15T03:57:19.167Z,5.1
2019-05-15T03:58:24.620Z,5.1
2019-05-15T03:59:29.717Z,5.3
2019-05-15T04:00:31.574Z,5.3
2019-05-15T04:01:38.348Z,5.1
2019-05-15T04:02:48.612Z,5.1
2019-05-15T04:03:50.638Z,5.1
2019-05-15T04:04:56.501Z,5.3
2019-05-15T04:06:03.053Z,5.3
2019-05-15T04:07:04.910Z,5.2
2019-05-15T04:08:11.322Z,5.3
2019-05-15T04:09:13.288Z,5.3
2019-05-15T04:10:15.150Z,5.4
2019-05-15T04:11:20.767Z,5.3
2019-05-15T04:12:22.638Z,5.3
2019-05-15T04:13:24.216Z,5.3
2019-05-15T04:14:26.078Z,5.3
2019-05-15T04:15:30.941Z,5.4
2019-05-15T04:16:32.792Z,5.5
2019-05-15T04:17:34.663Z,5.5
2019-05-15T04:18:39.341Z,5.5
2019-05-15T04:19:41.410Z,5.5
2019-05-15T04:20:43.271Z,5.5
2019-05-15T04:21:45.359Z,5.6
2019-05-15T04:22:50.682Z,5.6
2019-05-15T04:23:52.541Z,5.6
2019-05-15T04:24:54.402Z,5.8
2019-05-15T04:25:59.680Z,5.8
2019-05-15T04:27:00.978Z,5.8
2019-05-15T04:28:11.363Z,5.8
2019-05-15T04:29:13.219Z,5.8
2019-05-15T04:30:15.093Z,5.7
2019-05-15T04:31:19.916Z,5.8
2019-05-15T04:32:21.784Z,5.8
2019-05-15T04:33:23.087Z,5.9
2019-05-15T04:34:24.941Z,5.8
2019-05-15T04:35:29.927Z,5.8
2019-05-15T04:36:31.798Z,5.9
2019-05-15T04:37:33.380Z,5.8
2019-05-15T04:38:34.965Z,5.8
2019-05-15T04:39:40.687Z,5.8
2019-05-15T04:40:42.553Z,5.9
2019-05-15T04:41:44.134Z,5.8
2019-05-15T04:42:45.996Z,5.8
2019-05-15T04:43:51.144Z,5.9
2019-05-15T04:44:52.753Z,5.9
2019-05-15T04:45:54.609Z,5.9
2019-05-15T04:47:03.527Z,6
2019-05-15T04:48:05.387Z,6
2019-05-15T04:49:11.639Z,6.2
2019-05-15T04:50:13.503Z,6.2
2019-05-15T04:51:15.375Z,6.1
2019-05-15T04:52:20.380Z,6.2
2019-05-15T04:53:22.245Z,6.2
2019-05-15T04:54:24.106Z,6.3
2019-05-15T04:55:29.376Z,6.3
2019-05-15T04:56:31.226Z,6.3
2019-05-15T04:57:34.253Z,6.2
2019-05-15T04:58:40.198Z,6.2
2019-05-15T04:59:42.067Z,6.3
2019-05-15T05:00:43.927Z,6.3
2019-05-15T05:01:45.802Z,6.3
2019-05-15T05:02:49.609Z,6.4
2019-05-15T05:03:51.635Z,6.3
2019-05-15T05:04:53.218Z,6.3
2019-05-15T05:05:55.244Z,6.4
2019-05-15T05:07:00.222Z,6.4
2019-05-15T05:08:02.083Z,6.4
2019-05-15T05:09:03.942Z,6.4
2019-05-15T05:10:09.145Z,6.4
2019-05-15T05:11:11.733Z,6.4
2019-05-15T05:12:13.586Z,6.4
2019-05-15T05:13:15.455Z,6.4
2019-05-15T05:14:20.995Z,6.5
2019-05-15T05:15:22.856Z,6.6
2019-05-15T05:16:25.090Z,6.6
2019-05-15T05:17:29.845Z,6.6
2019-05-15T05:18:31.715Z,6.7
2019-05-15T05:19:33.574Z,6.7
2019-05-15T05:20:35.431Z,6.8
2019-05-15T05:21:39.299Z,6.8
2019-05-15T05:22:40.893Z,6.9
2019-05-15T05:23:42.753Z,6.9
2019-05-15T05:24:44.617Z,6.9
2019-05-15T05:25:49.247Z,7
2019-05-15T05:26:51.258Z,7
2019-05-15T05:27:53.117Z,7.1
2019-05-15T05:28:54.975Z,7.1
2019-05-15T05:30:02.613Z,7.1
2019-05-15T05:31:04.469Z,7.1
2019-05-15T05:32:09.242Z,7.2
2019-05-15T05:33:10.870Z,7.2
2019-05-15T05:34:12.730Z,7.2
2019-05-15T05:35:14.309Z,7.2
2019-05-15T05:36:18.337Z,7.4
2019-05-15T05:37:20.135Z,7.4
2019-05-15T05:38:22.012Z,7.4
2019-05-15T05:39:23.882Z,7.4
2019-05-15T05:40:25.802Z,7.4
2019-05-15T05:41:30.158Z,7.4
2019-05-15T05:42:32.023Z,7.5
2019-05-15T05:43:33.879Z,7.6
2019-05-15T05:44:37.980Z,7.6
2019-05-15T05:45:44.147Z,7.4
2019-05-15T05:46:45.442Z,7.5
2019-05-15T05:47:49.540Z,7.6
2019-05-15T05:48:51.400Z,7.8
2019-05-15T05:49:53.272Z,7.6
2019-05-15T05:50:55.125Z,7.6
2019-05-15T05:51:59.520Z,7.7
2019-05-15T05:53:01.382Z,7.7
2019-05-15T05:54:02.967Z,7.7
2019-05-15T05:55:04.826Z,7.8
2019-05-15T05:56:09.198Z,7.8
2019-05-15T05:57:10.771Z,7.9
2019-05-15T05:58:12.633Z,7.9
2019-05-15T05:59:14.218Z,7.9
2019-05-15T06:00:18.049Z,7.9
2019-05-15T06:01:19.711Z,8
2019-05-15T06:02:21.312Z,8.1
2019-05-15T06:03:23.230Z,8
2019-05-15T06:04:24.797Z,8.1
2019-05-15T06:05:28.744Z,8.1
2019-05-15T06:06:30.612Z,8.1
2019-05-15T06:07:35.325Z,8.1
2019-05-15T06:08:39.910Z,8
2019-05-15T06:09:41.773Z,8
2019-05-15T06:10:43.636Z,8.1
2019-05-15T06:11:45.550Z,8.1
2019-05-15T06:12:49.735Z,8.1
2019-05-15T06:13:52.535Z,8.2
2019-05-15T06:14:54.503Z,8.2
2019-05-15T06:15:59.151Z,8.2
2019-05-15T06:17:01.082Z,8.2
2019-05-15T06:18:02.969Z,8.3
2019-05-15T06:19:04.840Z,8.3
2019-05-15T06:20:09.063Z,8.3
2019-05-15T06:21:10.932Z,8.4
2019-05-15T06:22:12.787Z,8.4
2019-05-15T06:23:14.661Z,8.4
2019-05-15T06:24:30.349Z,8.6
2019-05-15T06:25:32.429Z,8.5
2019-05-15T06:26:34.013Z,8.6
2019-05-15T06:27:35.874Z,8.7
2019-05-15T06:28:40.331Z,8.6
2019-05-15T06:29:42.191Z,8.6
2019-05-15T06:30:44.051Z,8.8
2019-05-15T06:31:48.204Z,8.7
2019-05-15T06:33:04.116Z,8.7
2019-05-15T06:34:14.598Z,8.6
2019-05-15T06:35:19.354Z,8.6
2019-05-15T06:36:21.368Z,8.7
2019-05-15T06:37:23.223Z,8.6
2019-05-15T06:38:25.082Z,8.6
2019-05-15T06:39:31.762Z,8.8
2019-05-15T06:40:33.622Z,8.8
2019-05-15T06:41:35.489Z,8.7
2019-05-15T06:42:39.856Z,8.8
2019-05-15T06:43:41.716Z,8.9
2019-05-15T06:44:43.585Z,8.9
2019-05-15T06:45:45.168Z,8.9
2019-05-15T06:46:49.647Z,9
2019-05-15T06:47:51.516Z,8.9
2019-05-15T06:48:53.377Z,9
2019-05-15T06:49:55.232Z,8.9
2019-05-15T06:50:59.360Z,9
2019-05-15T06:52:01.221Z,8.9
2019-05-15T06:53:03.080Z,9.1
2019-05-15T06:54:10.800Z,9.1
2019-05-15T06:55:12.661Z,9.3
2019-05-15T06:56:14.523Z,9.1
2019-05-15T06:57:18.357Z,9
2019-05-15T06:58:20.362Z,9.2
2019-05-15T06:59:25.576Z,9.2
2019-05-15T07:00:29.585Z,9.1
2019-05-15T07:01:31.446Z,9.2
2019-05-15T07:02:33.306Z,9.2
2019-05-15T07:03:35.169Z,9.3
2019-05-15T07:04:39.653Z,9.2
2019-05-15T07:05:41.677Z,9.1
2019-05-15T07:06:43.556Z,9.1
2019-05-15T07:07:45.397Z,9.2
2019-05-15T07:08:49.922Z,9.2
2019-05-15T07:09:51.782Z,9.3
2019-05-15T07:10:53.641Z,9.3
2019-05-15T07:11:55.501Z,9.3
2019-05-15T07:12:59.888Z,9.3
2019-05-15T07:14:01.472Z,9.4
2019-05-15T07:15:03.333Z,9.4
2019-05-15T07:16:05.189Z,9.5
2019-05-15T07:17:09.425Z,9.4
2019-05-15T07:18:11.304Z,9.5
2019-05-15T07:19:13.163Z,9.6
2019-05-15T07:20:15.026Z,9.5
2019-05-15T07:21:19.838Z,9.7
2019-05-15T07:22:22.200Z,9.7
2019-05-15T07:23:27.172Z,9.5
2019-05-15T07:24:32.207Z,9.6
2019-05-15T07:25:34.064Z,9.6
2019-05-15T07:26:38.916Z,9.6
2019-05-15T07:27:40.691Z,9.7
2019-05-15T07:28:42.551Z,9.7
2019-05-15T07:29:44.408Z,9.6
2019-05-15T07:30:46.266Z,9.8
2019-05-15T07:31:50.859Z,9.7
2019-05-15T07:32:52.721Z,9.9
2019-05-15T07:33:54.582Z,9.7
2019-05-15T07:34:57.824Z,9.9
2019-05-15T07:35:59.569Z,9.9
2019-05-15T07:37:01.427Z,10
2019-05-15T07:38:03.293Z,9.9
2019-05-15T07:39:05.144Z,9.8
2019-05-15T07:40:08.974Z,10
2019-05-15T07:41:10.820Z,10
2019-05-15T07:42:12.705Z,9.8
2019-05-15T07:43:13.733Z,9.8
2019-05-15T07:44:15.309Z,9.8
2019-05-15T07:45:20.015Z,9.9
2019-05-15T07:46:21.875Z,9.9
2019-05-15T07:47:23.733Z,10
2019-05-15T07:48:25.593Z,9.9
2019-05-15T07:49:29.665Z,10.1
2019-05-15T07:50:31.523Z,10
2019-05-15T07:51:33.388Z,10.1
2019-05-15T07:52:35.248Z,10.1
2019-05-15T07:53:39.808Z,10.1
2019-05-15T07:54:40.838Z,10.1
2019-05-15T07:55:43.003Z,10.2
2019-05-15T07:56:44.581Z,10.1
2019-05-15T07:57:49.404Z,10.1
2019-05-15T07:58:52.889Z,10.2
2019-05-15T07:59:54.806Z,10.2
2019-05-15T08:00:58.943Z,10.3
2019-05-15T08:02:00.964Z,10.3
2019-05-15T08:03:02.825Z,10.3
2019-05-15T08:04:22.475Z,10.3
2019-05-15T08:05:33.757Z,10.4
2019-05-15T08:06:38.549Z,10.5
2019-05-15T08:07:40.720Z,10.5
2019-05-15T08:08:42.581Z,10.6
2019-05-15T08:09:44.440Z,10.6
2019-05-15T08:10:49.315Z,10.7
2019-05-15T08:11:51.188Z,10.7
2019-05-15T08:12:53.058Z,10.6
2019-05-15T08:13:54.916Z,10.6
2019-05-15T08:14:59.091Z,10.6
2019-05-15T08:16:00.963Z,10.6
2019-05-15T08:17:01.999Z,10.7
2019-05-15T08:18:08.990Z,10.7
2019-05-15T08:19:14.219Z,10.8
2019-05-15T08:20:18.731Z,10.7
2019-05-15T08:21:20.594Z,10.7
2019-05-15T08:22:21.889Z,10.8
2019-05-15T08:23:23.752Z,10.9
2019-05-15T08:24:29.516Z,10.9
2019-05-15T08:25:35.231Z,11.1
2019-05-15T08:26:43.519Z,10.9
2019-05-15T08:27:49.020Z,11
2019-05-15T08:28:50.065Z,11
2019-05-15T08:29:51.929Z,10.9
2019-05-15T08:30:53.527Z,11
2019-05-15T08:31:55.393Z,10.9
2019-05-15T08:32:59.861Z,11
2019-05-15T08:34:12.535Z,11
2019-05-15T08:35:20.319Z,11
2019-05-15T08:36:22.195Z,10.9
2019-05-15T08:37:23.768Z,11
2019-05-15T08:38:25.333Z,11
2019-05-15T08:39:29.931Z,11
2019-05-15T08:40:31.798Z,11.1
2019-05-15T08:41:33.652Z,11
2019-05-15T08:42:35.512Z,10.9
2019-05-15T08:43:43.217Z,11
2019-05-15T08:44:44.797Z,11
2019-05-15T08:45:49.437Z,11.1
2019-05-15T08:46:51.467Z,11.2
2019-05-15T08:47:53.334Z,11.2
2019-05-15T08:48:55.192Z,11.3
2019-05-15T08:49:59.724Z,11.3
2019-05-15T08:51:01.645Z,11.3
2019-05-15T08:52:03.523Z,11.5
2019-05-15T08:53:11.005Z,11.4
2019-05-15T08:54:12.856Z,11.5
2019-05-15T08:55:14.434Z,11.6
2019-05-15T08:56:19.119Z,11.7
2019-05-15T08:57:21.136Z,11.7
2019-05-15T08:58:23.003Z,11.6
2019-05-15T08:59:24.864Z,11.6
2019-05-15T09:00:29.789Z,11.7
2019-05-15T09:01:31.653Z,11.8
2019-05-15T09:02:32.681Z,11.9
2019-05-15T09:03:34.266Z,11.9
2019-05-15T09:04:38.813Z,12
2019-05-15T09:05:40.679Z,12
2019-05-15T09:06:42.550Z,11.9
2019-05-15T09:07:44.482Z,11.8
2019-05-15T09:08:48.863Z,11.7
2019-05-15T09:09:50.880Z,11.5
2019-05-15T09:10:52.729Z,11.6
2019-05-15T09:11:54.589Z,11.7
2019-05-15T09:12:58.874Z,11.6
2019-05-15T09:14:00.204Z,11.7
2019-05-15T09:15:02.050Z,11.9
2019-05-15T09:16:03.913Z,11.8
2019-05-15T09:17:05.772Z,11.9
2019-05-15T09:18:15.787Z,12
2019-05-15T09:19:21.251Z,11.9
2019-05-15T09:20:23.275Z,12.1
2019-05-15T09:21:25.132Z,12
2019-05-15T09:22:29.233Z,12
2019-05-15T09:23:31.185Z,12
2019-05-15T09:24:32.235Z,12.2
2019-05-15T09:25:34.099Z,12
2019-05-15T09:26:35.957Z,12
2019-05-15T09:27:41.768Z,12
2019-05-15T09:28:43.638Z,12.3
2019-05-15T09:29:45.493Z,12.2
2019-05-15T09:30:49.806Z,12.4
2019-05-15T09:31:51.413Z,12.4
2019-05-15T09:32:53.258Z,12.5
2019-05-15T09:33:55.115Z,12.4
2019-05-15T09:34:59.431Z,12.4
2019-05-15T09:36:01.369Z,12.3
2019-05-15T09:37:03.268Z,12.4
2019-05-15T09:38:04.610Z,12.5
2019-05-15T09:39:08.995Z,12.5
2019-05-15T09:40:14.316Z,12.6
2019-05-15T09:41:17.762Z,12.6
2019-05-15T09:42:19.732Z,12.7
2019-05-15T09:43:21.591Z,12.6
2019-05-15T09:44:23.460Z,12.6
2019-05-15T09:45:25.339Z,12.4
2019-05-15T09:46:29.512Z,12.6
2019-05-15T09:47:31.112Z,12.4
2019-05-15T09:48:31.890Z,12.7
2019-05-15T09:49:33.750Z,12.6
2019-05-15T09:50:35.332Z,12.6
2019-05-15T09:51:40.568Z,12.7
2019-05-15T09:52:42.152Z,12.6
2019-05-15T09:53:43.746Z,12.5
2019-05-15T09:54:45.615Z,12.6
2019-05-15T09:55:50.456Z,12.4
2019-05-15T09:56:51.750Z,12.5
2019-05-15T09:57:55.079Z,12.6
2019-05-15T09:58:59.951Z,12.6
2019-05-15T10:00:01.538Z,12.6
2019-05-15T10:01:03.415Z,12.8
2019-05-15T10:02:05.266Z,12.8
2019-05-15T10:03:09.706Z,12.8
2019-05-15T10:04:11.547Z,12.7
2019-05-15T10:05:12.841Z,12.6
2019-05-15T10:06:14.430Z,12.5
2019-05-15T10:07:19.103Z,12.4
2019-05-15T10:08:21.475Z,12.5
2019-05-15T10:09:23.192Z,12.5
2019-05-15T10:10:25.161Z,12.5
2019-05-15T10:11:29.048Z,12.7
2019-05-15T10:12:34.798Z,12.7
2019-05-15T10:13:39.648Z,12.9
2019-05-15T10:14:41.522Z,13
2019-05-15T10:15:43.385Z,13.1
2019-05-15T10:16:52.130Z,13.1
2019-05-15T10:17:54.003Z,13.1
2019-05-15T10:18:58.015Z,13.1
2019-05-15T10:19:59.711Z,13.2
2019-05-15T10:21:01.588Z,13.2
2019-05-15T10:22:03.233Z,13
2019-05-15T10:23:05.429Z,13.2
2019-05-15T10:24:09.874Z,13.1
2019-05-15T10:25:11.442Z,13
2019-05-15T10:26:14.314Z,13.1
2019-05-15T10:27:18.002Z,13.1
2019-05-15T10:28:19.950Z,13.2
2019-05-15T10:29:21.811Z,13.3
2019-05-15T10:30:23.675Z,13.1
2019-05-15T10:31:28.147Z,13.1
2019-05-15T10:32:30.144Z,13.2
2019-05-15T10:33:31.728Z,13.3
2019-05-15T10:34:33.322Z,13.3
2019-05-15T10:35:35.191Z,13.3
2019-05-15T10:36:39.685Z,13.3
2019-05-15T10:37:41.280Z,13.3
2019-05-15T10:38:43.185Z,13.4
2019-05-15T10:39:45.230Z,13.4
2019-05-15T10:41:02.944Z,13.4
2019-05-15T10:42:18.682Z,13.4
2019-05-15T10:43:21.418Z,13.6
2019-05-15T10:44:23.363Z,13.6
2019-05-15T10:45:25.212Z,13.5
2019-05-15T10:46:29.907Z,13.4
2019-05-15T10:47:31.770Z,13.7
2019-05-15T10:48:33.549Z,13.8
2019-05-15T10:49:35.440Z,13.5
2019-05-15T10:50:39.812Z,13.6
2019-05-15T10:51:41.678Z,13.7
2019-05-15T10:52:43.261Z,13.7
2019-05-15T10:53:45.125Z,13.8
2019-05-15T10:54:49.694Z,13.7
2019-05-15T10:55:51.556Z,13.9
2019-05-15T10:56:53.128Z,13.7
2019-05-15T10:57:54.999Z,13.8
2019-05-15T10:58:58.850Z,13.7
2019-05-15T11:00:00.802Z,13.8
2019-05-15T11:01:03.475Z,13.8
2019-05-15T11:02:08.392Z,13.8
2019-05-15T11:03:10.374Z,13.9
2019-05-15T11:04:11.962Z,14
2019-05-15T11:05:13.810Z,14
2019-05-15T11:06:15.672Z,14.1
2019-05-15T11:07:19.740Z,13.9
2019-05-15T11:08:21.599Z,13.9
2019-05-15T11:09:23.463Z,13.9
2019-05-15T11:10:25.333Z,14
2019-05-15T11:11:29.863Z,13.9
2019-05-15T11:12:31.728Z,13.9
2019-05-15T11:13:33.591Z,14.1
2019-05-15T11:14:37.839Z,14.1
2019-05-15T11:15:42.505Z,14
2019-05-15T11:16:44.553Z,14.1
2019-05-15T11:17:49.472Z,14.1
2019-05-15T11:18:53.477Z,14.2
2019-05-15T11:19:54.842Z,13.9
2019-05-15T11:20:59.434Z,14.1
2019-05-15T11:22:01.349Z,14.1
2019-05-15T11:23:02.968Z,14.1
2019-05-15T11:24:04.833Z,14.1
2019-05-15T11:25:10.018Z,13.9
2019-05-15T11:26:11.842Z,13.8
2019-05-15T11:27:13.704Z,14
2019-05-15T11:28:15.570Z,14.1
2019-05-15T11:29:16.887Z,14.2
2019-05-15T11:30:19.315Z,14
2019-05-15T11:31:24.358Z,14
2019-05-15T11:32:29.592Z,14
2019-05-15T11:33:31.493Z,14.2
2019-05-15T11:34:33.541Z,14.3
2019-05-15T11:35:35.411Z,14.3
2019-05-15T11:36:41.089Z,14.3
2019-05-15T11:37:45.085Z,14.4
2019-05-15T11:38:58.155Z,14.2
2019-05-15T11:40:00.071Z,14.3
2019-05-15T11:41:04.541Z,14.5
2019-05-15T11:42:09.077Z,14.5
2019-05-15T11:43:10.661Z,14.6
2019-05-15T11:44:12.526Z,14.6
2019-05-15T11:45:14.123Z,14.5
2019-05-15T11:46:18.397Z,14.5
2019-05-15T11:47:20.091Z,14.5
2019-05-15T11:48:21.966Z,14.6
2019-05-15T11:49:23.830Z,14.5
2019-05-15T11:50:29.087Z,14.5
2019-05-15T11:51:31.167Z,14.3
2019-05-15T11:52:36.346Z,14.3
2019-05-15T11:53:41.833Z,14.3
2019-05-15T11:54:43.694Z,14.4
2019-05-15T11:55:47.637Z,14.4
2019-05-15T11:56:49.987Z,14.4
2019-05-15T11:57:55.464Z,14.4
2019-05-15T11:58:59.950Z,14.4
2019-05-15T12:00:01.744Z,14.5
2019-05-15T12:01:08.481Z,14.3
2019-05-15T12:02:10.889Z,14.4
2019-05-15T12:03:12.752Z,14.3
2019-05-15T12:04:26.605Z,14.5
2019-05-15T12:05:35.386Z,14.5
2019-05-15T12:06:39.820Z,14.8
2019-05-15T12:07:41.685Z,14.9
2019-05-15T12:08:43.542Z,14.9
2019-05-15T12:09:45.407Z,15
2019-05-15T12:10:47.268Z,15.1
2019-05-15T12:11:48.859Z,15.2
2019-05-15T12:12:50.726Z,15.2
2019-05-15T12:13:52.591Z,15.2
2019-05-15T12:14:54.453Z,15.2
2019-05-15T12:15:58.707Z,15.1
2019-05-15T12:17:10.325Z,15.2
2019-05-15T12:18:19.358Z,15.3
2019-05-15T12:19:21.220Z,15.4
2019-05-15T12:20:23.084Z,15.4
2019-05-15T12:21:24.671Z,15.2
2019-05-15T12:22:29.462Z,15.2
2019-05-15T12:23:31.056Z,15.2
2019-05-15T12:24:36.667Z,15
2019-05-15T12:25:41.998Z,14.9
2019-05-15T12:26:43.869Z,14.7
2019-05-15T12:27:45.455Z,14.7
2019-05-15T12:28:50.413Z,14.4
2019-05-15T12:29:52.275Z,14.2
2019-05-15T12:30:54.138Z,14
2019-05-15T12:32:11.662Z,14
2019-05-15T12:35:39.895Z,13.9
2019-05-15T12:36:51.612Z,14.4
2019-05-15T13:00:35.521Z,14.6
2019-05-15T13:01:39.721Z,14.4
2019-05-15T13:02:41.585Z,14.4
2019-05-15T13:03:43.445Z,14.3
2019-05-15T13:04:45.325Z,14.3
2019-05-15T13:05:48.525Z,14.1
2019-05-15T13:07:10.395Z,14.2
2019-05-15T13:08:20.827Z,14.1
2019-05-15T13:09:22.689Z,14
2019-05-15T13:10:24.554Z,14
2019-05-15T13:11:28.366Z,14
2019-05-15T13:12:30.364Z,14.1
2019-05-15T13:13:32.229Z,14
2019-05-15T13:14:34.094Z,14.1
2019-05-15T13:15:40.430Z,14.2
2019-05-15T13:16:43.011Z,14.3
2019-05-15T13:17:44.875Z,14.5
2019-05-15T13:18:52.851Z,14.5
2019-05-15T13:19:54.159Z,14.8
2019-05-15T13:20:56.873Z,14.9
2019-05-15T13:22:01.212Z,15.1
2019-05-15T13:23:03.083Z,15.2
2019-05-15T13:24:04.950Z,15.1
2019-05-15T13:25:09.008Z,15
2019-05-15T13:26:22.876Z,15
2019-05-15T13:27:28.493Z,14.9
2019-05-15T13:28:30.355Z,15.1
2019-05-15T13:29:32.234Z,15.1
2019-05-15T13:30:34.187Z,14.8
2019-05-15T13:31:42.615Z,14.8
2019-05-15T13:32:44.498Z,14.7
2019-05-15T13:33:48.085Z,14.4
2019-05-15T13:34:50.029Z,14.4
2019-05-15T13:35:51.602Z,14.2
2019-05-15T13:36:53.466Z,14.4
2019-05-15T13:37:55.329Z,14.5
2019-05-15T13:38:59.687Z,14.7
2019-05-15T13:40:01.554Z,14.7
2019-05-15T13:41:03.155Z,15
2019-05-15T13:42:05.074Z,15
2019-05-15T13:43:08.224Z,15.1
2019-05-15T13:44:10.309Z,15.4
2019-05-15T13:45:13.304Z,15.5
2019-05-15T13:46:15.432Z,15.5
2019-05-15T13:47:21.827Z,15.4
2019-05-15T13:48:23.696Z,15.4
2019-05-15T13:49:27.964Z,15.5
2019-05-15T13:50:29.952Z,15.4
2019-05-15T13:51:31.822Z,15.6
2019-05-15T13:52:33.692Z,15.6
2019-05-15T13:53:35.001Z,15.6
2019-05-15T13:54:39.316Z,15.6
2019-05-15T13:55:42.627Z,15.6
2019-05-15T13:56:44.853Z,15.6
2019-05-15T13:57:48.514Z,15.5
2019-05-15T13:58:50.498Z,15.6
2019-05-15T13:59:52.361Z,15.5
2019-05-15T14:00:53.937Z,15.3
2019-05-15T14:01:55.802Z,15.3
2019-05-15T14:03:00.738Z,15.2
2019-05-15T14:04:02.667Z,15
2019-05-15T14:05:04.533Z,14.8
2019-05-15T14:06:09.073Z,14.7
2019-05-15T14:07:11.600Z,14.8
2019-05-15T14:08:13.461Z,14.8
2019-05-15T14:09:15.323Z,14.7
2019-05-15T14:10:18.086Z,14.8
2019-05-15T14:11:21.617Z,14.7
2019-05-15T14:12:23.722Z,14.7
2019-05-15T14:13:25.308Z,14.8
2019-05-15T14:14:29.994Z,14.7
2019-05-15T14:15:30.741Z,14.7
2019-05-15T14:16:32.604Z,14.7
2019-05-15T14:17:34.473Z,14.7
2019-05-15T14:18:39.017Z,14.7
2019-05-15T14:19:41.016Z,14.7
2019-05-15T14:20:42.881Z,14.8
2019-05-15T14:21:44.746Z,14.8
2019-05-15T14:22:49.520Z,14.8
2019-05-15T14:23:51.393Z,14.9
2019-05-15T14:24:53.258Z,15
2019-05-15T14:25:55.125Z,15.1
2019-05-15T14:26:59.491Z,15.2
2019-05-15T14:28:01.364Z,15.1
2019-05-15T14:29:05.653Z,14.9
2019-05-15T14:30:10.351Z,14.9
2019-05-15T14:31:12.256Z,15.1
2019-05-15T14:32:14.119Z,15
2019-05-15T14:33:15.980Z,14.9
2019-05-15T14:34:20.332Z,14.8
2019-05-15T14:35:23.083Z,14.8
2019-05-15T14:36:24.961Z,14.8
2019-05-15T14:37:29.603Z,14.9
2019-05-15T14:38:31.471Z,15
2019-05-15T14:39:33.330Z,15.3
2019-05-15T14:40:34.919Z,15.7
2019-05-15T14:41:38.147Z,15.7
2019-05-15T14:42:40.192Z,15.9
2019-05-15T14:43:42.056Z,16.2
2019-05-15T14:44:43.937Z,16.2
2019-05-15T14:45:48.000Z,16.1
2019-05-15T14:46:51.037Z,16.3